URKS weather

Enem Airport
Enem, Republic of Adygea, Russia

Public forecast

Using degrees Celsius for public forecast. Weather courtesy of forecast.io.

METAR (pilot weather report)

Closest report is Krasnodar Pashkovsky International Airport, 11.4 nm (21.2 km) ENE. Retrieved 2019/08/24 07:30 UTC (23 minutes ago):

URKK 240730Z VRB01MPS CAVOK 28/14 Q1013 R23L/CLRD70 NOSIG RMK QFE757

TAF (pilot weather forecast)

Closest forecast is Krasnodar Pashkovsky International Airport, 11.4 nm (21.2 km) ENE. Retrieved 2019/08/24 09:24 UTC (0 seconds ago):

TAF URKK 240757Z 2409/2509 06003G08MPS 9999 SCT040CB